Time;durP1;ratioP1;P1;durP2;ratioP2;P2;SDS_P1;SDS_P2;PMS_P1;PMS_P2;Temp;Humidity;BMP_temperature;BMP_pressure;BME280_temperature;BME280_humidity;BME280_pressure;Samples;Min_cycle;Max_cycle;Signal;HPM_P1;HPM_P2
2021/01/16 00:01:39;;;;;;;19.00;9.43;;;1.20;98.30;;;;;;10434994;28;20052;-66
2021/01/16 00:06:40;;;;;;;15.40;7.47;;;1.20;98.40;;;;;;10401575;28;20037;-66
2021/01/16 00:11:42;;;;;;;15.30;8.40;;;1.10;98.10;;;;;;10419566;28;20064;-66
2021/01/16 00:16:43;;;;;;;16.00;7.97;;;1.10;98.20;;;;;;10426759;28;20044;-67
2021/01/16 00:21:44;;;;;;;14.77;7.47;;;1.10;98.20;;;;;;10432907;28;20045;-66
2021/01/16 00:26:45;;;;;;;17.02;7.93;;;1.10;98.50;;;;;;10441332;28;20056;-66
2021/01/16 00:31:47;;;;;;;19.83;9.57;;;1.10;98.30;;;;;;10443271;28;20052;-67
2021/01/16 00:36:48;;;;;;;15.20;7.53;;;1.10;98.30;;;;;;10435148;28;20045;-67
2021/01/16 00:41:49;;;;;;;21.45;8.75;;;1.10;98.20;;;;;;10420815;28;20483;-67
2021/01/16 00:46:50;;;;;;;16.98;7.72;;;1.10;98.30;;;;;;10420896;28;20041;-66
2021/01/16 00:51:52;;;;;;;20.15;9.93;;;1.10;98.20;;;;;;10402256;28;20590;-66
2021/01/16 00:56:53;;;;;;;15.60;8.30;;;1.10;98.40;;;;;;10421011;28;20053;-67
2021/01/16 01:01:54;;;;;;;17.67;9.23;;;1.00;98.30;;;;;;10444860;28;20071;-66
2021/01/16 01:06:55;;;;;;;19.23;8.40;;;1.00;98.30;;;;;;10410420;28;20053;-67
2021/01/16 01:11:56;;;;;;;16.60;8.27;;;1.00;98.50;;;;;;10379827;28;20056;-67
2021/01/16 01:16:58;;;;;;;15.65;8.45;;;1.00;98.60;;;;;;10416077;28;20048;-67
2021/01/16 01:21:59;;;;;;;17.48;8.02;;;1.00;98.40;;;;;;10399108;28;20044;-67
2021/01/16 01:27:00;;;;;;;19.05;8.98;;;1.00;98.70;;;;;;10403357;28;20439;-67
2021/01/16 01:32:01;;;;;;;17.98;8.32;;;1.00;98.80;;;;;;10396813;28;20045;-67
2021/01/16 01:37:03;;;;;;;20.00;8.63;;;0.90;98.70;;;;;;10369766;28;20050;-67
2021/01/16 01:42:04;;;;;;;17.33;7.97;;;0.90;98.90;;;;;;10375159;28;20057;-67
2021/01/16 01:47:06;;;;;;;18.73;8.48;;;0.90;99.00;;;;;;10372439;28;20147;-67
2021/01/16 01:52:10;;;;;;;16.70;6.80;;;0.90;99.40;;;;;;10377169;28;20741;-67
2021/01/16 01:57:14;;;;;;;14.88;6.88;;;0.90;98.50;;;;;;10386976;28;20060;-68
2021/01/16 02:02:16;;;;;;;14.40;6.47;;;0.70;98.20;;;;;;10404981;28;20479;-67
2021/01/16 02:07:29;;;;;;;13.10;6.63;;;0.60;98.00;;;;;;10401736;28;20041;-67
2021/01/16 02:12:31;;;;;;;12.00;5.25;;;0.60;98.00;;;;;;10380206;28;20057;-67
2021/01/16 02:17:38;;;;;;;13.40;5.95;;;0.50;97.30;;;;;;10365510;28;20109;-68
2021/01/16 02:23:01;;;;;;;14.60;5.20;;;0.50;97.00;;;;;;10378892;28;20053;-67
2021/01/16 02:28:05;;;;;;;9.40;4.45;;;0.50;96.50;;;;;;10400549;28;20130;-67
2021/01/16 02:33:10;;;;;;;11.10;5.07;;;0.50;95.80;;;;;;10389055;28;20049;-67
2021/01/16 02:38:27;;;;;;;8.88;4.28;;;0.40;95.30;;;;;;10371717;28;20053;-67
2021/01/16 02:43:39;;;;;;;9.25;4.15;;;0.40;95.50;;;;;;10386366;28;20064;-67
2021/01/16 02:49:03;;;;;;;8.48;3.90;;;0.40;95.50;;;;;;10375340;28;20131;-67
2021/01/16 02:54:05;;;;;;;9.00;4.45;;;0.40;95.30;;;;;;10391918;28;20057;-67
2021/01/16 02:59:06;;;;;;;7.15;3.80;;;0.30;95.50;;;;;;10377099;28;20135;-68
2021/01/16 03:04:07;;;;;;;9.40;4.93;;;0.30;95.70;;;;;;10313685;28;20048;-67
2021/01/16 03:09:09;;;;;;;11.18;3.63;;;0.30;95.70;;;;;;10386466;28;20098;-67
2021/01/16 03:14:12;;;;;;;9.60;4.57;;;0.30;95.20;;;;;;10407439;28;20057;-67
2021/01/16 03:19:23;;;;;;;9.43;4.20;;;0.30;95.50;;;;;;10410345;28;20072;-67
2021/01/16 03:24:25;;;;;;;12.52;4.97;;;0.20;95.90;;;;;;10411548;28;20044;-67
2021/01/16 03:29:27;;;;;;;12.55;4.57;;;0.20;96.00;;;;;;10407726;28;20072;-67
2021/01/16 03:34:28;;;;;;;11.00;4.45;;;0.20;95.50;;;;;;10414582;28;20495;-67
2021/01/16 03:39:29;;;;;;;11.02;4.68;;;0.20;95.90;;;;;;10392025;28;20077;-67
2021/01/16 03:44:31;;;;;;;11.20;5.30;;;0.20;95.90;;;;;;10389012;28;20044;-68
2021/01/16 03:49:33;;;;;;;8.52;4.10;;;0.20;96.00;;;;;;10403033;28;20049;-68
2021/01/16 03:54:34;;;;;;;9.25;3.75;;;0.20;95.90;;;;;;10404470;28;20168;-67
2021/01/16 03:59:36;;;;;;;8.48;4.35;;;0.20;96.00;;;;;;10401293;28;20133;-67
2021/01/16 04:04:38;;;;;;;10.00;4.43;;;0.20;96.40;;;;;;10365929;28;20537;-68
2021/01/16 04:09:40;;;;;;;15.93;5.35;;;0.10;94.50;;;;;;10410329;28;20052;-68
2021/01/16 04:14:41;;;;;;;12.45;5.55;;;0.00;94.80;;;;;;10375430;28;20045;-68
2021/01/16 04:19:42;;;;;;;12.93;5.35;;;0.00;94.70;;;;;;10397504;28;20051;-68
2021/01/16 04:24:43;;;;;;;11.10;4.88;;;0.00;94.70;;;;;;10409051;28;20052;-67
2021/01/16 04:29:45;;;;;;;14.82;4.82;;;0.10;94.70;;;;;;10407080;28;20052;-67
2021/01/16 04:34:46;;;;;;;12.18;4.88;;;0.10;95.00;;;;;;10378742;28;20384;-67
2021/01/16 04:39:47;;;;;;;10.73;5.25;;;0.10;94.70;;;;;;10390960;28;20085;-67
2021/01/16 04:44:49;;;;;;;13.07;5.30;;;0.10;95.00;;;;;;10396689;28;20098;-67
2021/01/16 04:49:51;;;;;;;12.05;5.15;;;0.10;95.10;;;;;;10390464;28;20053;-68
2021/01/16 04:54:54;;;;;;;11.07;4.30;;;0.10;95.50;;;;;;10367148;28;20063;-68
2021/01/16 04:59:56;;;;;;;10.48;4.40;;;0.10;94.40;;;;;;10373865;28;20048;-68
2021/01/16 05:05:00;;;;;;;10.90;4.97;;;0.00;94.40;;;;;;10368041;28;20107;-68
2021/01/16 05:10:08;;;;;;;9.52;4.15;;;0.00;94.00;;;;;;10399179;28;20476;-68
2021/01/16 05:15:18;;;;;;;13.65;5.65;;;-0.10;94.60;;;;;;10398986;28;20100;-67
2021/01/16 05:20:21;;;;;;;7.40;4.15;;;0.00;94.70;;;;;;10375802;28;20104;-67
2021/01/16 05:25:27;;;;;;;12.05;5.00;;;0.00;92.40;;;;;;10366848;28;20045;-67
2021/01/16 05:30:29;;;;;;;11.23;5.22;;;0.00;93.10;;;;;;10376799;28;20095;-67
2021/01/16 05:35:31;;;;;;;10.27;5.10;;;0.00;94.00;;;;;;10397243;28;20045;-68
2021/01/16 05:40:35;;;;;;;11.90;4.15;;;0.00;94.40;;;;;;10405914;28;20045;-67
2021/01/16 05:45:37;;;;;;;8.77;4.22;;;0.00;93.40;;;;;;10401161;28;20046;-68
2021/01/16 05:50:39;;;;;;;8.10;3.55;;;0.00;92.10;;;;;;10395987;28;20034;-67
2021/01/16 05:55:43;;;;;;;7.22;3.40;;;0.10;91.20;;;;;;10391365;28;20083;-67
2021/01/16 06:00:49;;;;;;;6.72;2.92;;;0.10;90.90;;;;;;10396534;28;20124;-67
2021/01/16 06:05:52;;;;;;;5.43;3.22;;;0.10;90.90;;;;;;10400201;28;20061;-67
2021/01/16 06:10:55;;;;;;;6.68;3.55;;;0.10;91.00;;;;;;10400951;28;20128;-67
2021/01/16 06:16:04;;;;;;;6.35;2.85;;;0.20;91.40;;;;;;10391773;28;20510;-67
2021/01/16 06:21:06;;;;;;;7.72;3.33;;;0.10;90.50;;;;;;10393128;28;20057;-68
2021/01/16 06:26:08;;;;;;;8.43;3.42;;;0.10;91.30;;;;;;10393918;28;20559;-67
2021/01/16 06:31:23;;;;;;;10.20;4.32;;;0.10;90.80;;;;;;10395762;28;20045;-67
2021/01/16 06:36:30;;;;;;;9.02;2.92;;;0.10;91.10;;;;;;10381690;28;20118;-67
2021/01/16 06:41:33;;;;;;;7.10;3.15;;;0.10;91.00;;;;;;10396380;28;20041;-67
2021/01/16 06:46:45;;;;;;;8.48;3.78;;;0.20;90.40;;;;;;10382941;28;20642;-67
2021/01/16 06:51:52;;;;;;;11.25;4.40;;;0.20;90.50;;;;;;10395670;28;20111;-67
2021/01/16 06:57:13;;;;;;;5.60;3.22;;;0.10;90.80;;;;;;10384292;28;20069;-67
2021/01/16 07:02:26;;;;;;;7.55;2.35;;;0.10;90.20;;;;;;10348325;28;20049;-67
2021/01/16 07:07:36;;;;;;;4.07;1.67;;;0.10;88.60;;;;;;10401694;28;20128;-67
2021/01/16 07:12:46;;;;;;;6.28;2.85;;;0.10;84.50;;;;;;10391514;28;20132;-67
2021/01/16 07:17:48;;;;;;;3.20;2.00;;;0.10;84.80;;;;;;10399917;28;20069;-66
2021/01/16 07:22:51;;;;;;;2.70;1.70;;;0.10;84.60;;;;;;10411540;28;20458;-66
2021/01/16 07:27:53;;;;;;;6.28;2.60;;;0.10;84.10;;;;;;10410413;28;20510;-66
2021/01/16 07:33:00;;;;;;;6.82;1.90;;;0.10;84.60;;;;;;10411999;28;20048;-66
2021/01/16 07:38:06;;;;;;;4.65;2.72;;;0.10;84.50;;;;;;10369548;28;20571;-66
2021/01/16 07:43:45;;;;;;;4.75;2.20;;;0.10;87.20;;;;;;10417630;28;23239;-66
2021/01/16 07:48:55;;;;;;;4.80;2.03;;;0.10;86.00;;;;;;10353947;28;20057;-67
2021/01/16 07:54:00;;;;;;;4.75;2.22;;;0.10;85.60;;;;;;10411894;28;20624;-66
2021/01/16 07:59:14;;;;;;;3.40;1.67;;;0.10;86.70;;;;;;10407526;28;20050;-66
2021/01/16 08:04:26;;;;;;;5.53;1.73;;;0.10;84.80;;;;;;10331445;28;20388;-66
2021/01/16 08:09:49;;;;;;;5.38;1.60;;;0.20;82.80;;;;;;10388028;28;20107;-66
2021/01/16 08:14:51;;;;;;;4.78;2.00;;;0.20;84.80;;;;;;10305149;28;20048;-66
2021/01/16 08:20:08;;;;;;;4.95;1.60;;;0.30;83.90;;;;;;10396154;28;20040;-66
2021/01/16 08:25:13;;;;;;;3.20;1.17;;;0.30;82.40;;;;;;10373728;28;20096;-66
2021/01/16 08:30:20;;;;;;;2.03;1.10;;;0.30;82.80;;;;;;10395111;28;20042;-66
2021/01/16 08:35:27;;;;;;;8.88;1.80;;;0.50;82.40;;;;;;10388923;28;20045;-66
2021/01/16 08:40:33;;;;;;;3.65;0.80;;;0.60;82.30;;;;;;10390995;28;20048;-69
2021/01/16 08:45:35;;;;;;;5.65;1.55;;;0.60;83.40;;;;;;10392159;28;20136;-66
2021/01/16 08:50:36;;;;;;;7.05;1.70;;;0.70;80.30;;;;;;10412411;28;20499;-66
2021/01/16 08:55:37;;;;;;;3.55;1.08;;;0.40;81.80;;;;;;10420272;28;20055;-66
2021/01/16 09:00:40;;;;;;;2.83;1.08;;;0.30;79.70;;;;;;10395407;28;20103;-66
2021/01/16 09:05:42;;;;;;;4.47;1.35;;;0.30;80.10;;;;;;10401277;28;20132;-66
2021/01/16 09:10:46;;;;;;;4.32;1.48;;;0.40;79.80;;;;;;10390221;28;20050;-66
2021/01/16 09:15:47;;;;;;;3.35;1.35;;;0.40;81.10;;;;;;10394340;28;20076;-66
2021/01/16 09:21:00;;;;;;;2.90;1.67;;;0.40;81.70;;;;;;10387933;28;20076;-66
2021/01/16 09:26:10;;;;;;;3.05;1.25;;;0.40;80.10;;;;;;10379078;28;20137;-66
2021/01/16 09:31:20;;;;;;;4.30;2.00;;;0.50;80.60;;;;;;10410120;28;20434;-66
2021/01/16 09:36:43;;;;;;;3.25;1.70;;;0.70;80.50;;;;;;10399961;28;20054;-66
2021/01/16 09:41:46;;;;;;;4.00;1.50;;;0.80;81.40;;;;;;10382828;28;20056;-66
2021/01/16 09:46:47;;;;;;;6.07;2.00;;;0.60;79.20;;;;;;10376611;28;20049;-66
2021/01/16 09:52:02;;;;;;;6.18;1.50;;;0.70;80.90;;;;;;10381546;28;20060;-66
2021/01/16 09:57:05;;;;;;;4.90;2.58;;;0.60;80.00;;;;;;10413056;28;20050;-66
2021/01/16 10:02:13;;;;;;;5.57;1.77;;;1.00;82.00;;;;;;10406065;28;20062;-66
2021/01/16 10:07:16;;;;;;;4.45;1.30;;;0.80;78.60;;;;;;10392839;28;20042;-66
2021/01/16 10:12:44;;;;;;;4.88;1.88;;;0.90;79.20;;;;;;10375355;28;20465;-66
2021/01/16 10:17:51;;;;;;;3.83;1.27;;;1.10;80.40;;;;;;10333568;28;20057;-66
2021/01/16 10:22:54;;;;;;;6.25;0.80;;;0.90;78.10;;;;;;10389408;28;20111;-66
2021/01/16 10:27:56;;;;;;;3.80;1.15;;;0.90;77.10;;;;;;10372407;28;20447;-66
2021/01/16 10:32:59;;;;;;;3.10;0.90;;;0.90;76.90;;;;;;10385374;28;20034;-66
2021/01/16 10:38:01;;;;;;;2.38;1.00;;;0.90;76.90;;;;;;10356827;28;20049;-66
2021/01/16 10:43:02;;;;;;;2.90;1.30;;;1.10;76.20;;;;;;10385990;28;20056;-66
2021/01/16 10:48:18;;;;;;;16.92;1.40;;;1.20;77.30;;;;;;10386068;28;20051;-66
2021/01/16 10:53:34;;;;;;;1.83;0.80;;;1.00;75.30;;;;;;10315729;28;20060;-66
2021/01/16 10:58:38;;;;;;;2.38;0.85;;;1.10;76.30;;;;;;10388385;28;20120;-66
2021/01/16 11:03:40;;;;;;;4.10;1.00;;;1.60;75.40;;;;;;10378079;28;21651;-66
2021/01/16 11:08:42;;;;;;;2.00;0.90;;;1.90;74.60;;;;;;10384323;28;20037;-66
2021/01/16 11:13:47;;;;;;;5.38;1.00;;;2.00;73.30;;;;;;10382451;28;20057;-66
2021/01/16 11:18:49;;;;;;;3.10;0.90;;;2.20;73.70;;;;;;10413746;28;20049;-66
2021/01/16 11:24:19;;;;;;;1.30;0.65;;;2.30;72.40;;;;;;10386795;28;20049;-66
2021/01/16 11:29:20;;;;;;;5.43;1.15;;;2.10;70.90;;;;;;10287012;28;20042;-66
2021/01/16 11:34:25;;;;;;;4.07;1.55;;;1.90;71.60;;;;;;10405555;28;20052;-66
2021/01/16 11:39:52;;;;;;;3.47;1.60;;;1.60;74.40;;;;;;10391529;28;20373;-66
2021/01/16 11:44:59;;;;;;;2.85;1.30;;;1.20;73.40;;;;;;10281546;28;20046;-67
2021/01/16 11:50:06;;;;;;;4.15;2.13;;;1.10;72.50;;;;;;10396652;28;20103;-67
2021/01/16 11:55:11;;;;;;;4.57;2.17;;;1.00;75.10;;;;;;10387250;28;20053;-67
2021/01/16 12:00:17;;;;;;;6.15;1.83;;;1.10;75.00;;;;;;10392999;28;20053;-67
2021/01/16 12:05:23;;;;;;;10.85;2.60;;;1.20;74.00;;;;;;10395601;28;20042;-67
2021/01/16 12:10:26;;;;;;;2.92;1.35;;;1.10;74.90;;;;;;10400005;28;20488;-66
2021/01/16 12:15:29;;;;;;;2.15;1.17;;;1.10;75.10;;;;;;10387111;28;20657;-67
2021/01/16 12:20:34;;;;;;;2.83;1.30;;;0.80;74.40;;;;;;10381586;28;20114;-66
2021/01/16 12:25:36;;;;;;;5.60;2.17;;;0.90;73.60;;;;;;10411308;28;20132;-66
2021/01/16 12:30:39;;;;;;;4.50;1.92;;;1.00;74.40;;;;;;10402365;28;20439;-66
2021/01/16 12:35:40;;;;;;;3.83;1.40;;;0.80;73.90;;;;;;10374119;28;20037;-67
2021/01/16 12:40:42;;;;;;;5.32;1.70;;;0.90;73.90;;;;;;10386348;28;20427;-67
2021/01/16 12:45:43;;;;;;;3.83;1.80;;;0.90;73.20;;;;;;10388126;28;20056;-66
2021/01/16 12:50:45;;;;;;;3.13;1.52;;;1.00;73.70;;;;;;10400781;28;20083;-67
2021/01/16 12:55:46;;;;;;;5.57;2.40;;;1.00;74.50;;;;;;10388811;28;20053;-66
2021/01/16 13:00:48;;;;;;;4.55;2.50;;;1.30;74.20;;;;;;10392925;28;20064;-67
2021/01/16 13:05:49;;;;;;;4.72;2.83;;;1.40;74.40;;;;;;10392038;28;20057;-67
2021/01/16 13:10:55;;;;;;;5.65;3.15;;;1.40;75.30;;;;;;10367355;28;20459;-67
2021/01/16 13:16:01;;;;;;;8.27;3.45;;;1.00;76.50;;;;;;10381710;28;20106;-67
2021/01/16 13:21:03;;;;;;;5.30;2.38;;;1.20;78.10;;;;;;10396069;28;20050;-67
2021/01/16 13:26:05;;;;;;;4.63;1.92;;;1.00;76.00;;;;;;10395002;28;20507;-67
2021/01/16 13:31:08;;;;;;;2.55;1.00;;;0.90;74.70;;;;;;10389762;28;20296;-67
2021/01/16 13:36:20;;;;;;;3.22;1.00;;;0.80;75.20;;;;;;10401951;28;20068;-67
2021/01/16 13:41:24;;;;;;;3.15;1.00;;;0.80;74.90;;;;;;10379615;28;20457;-65
2021/01/16 13:46:38;;;;;;;2.75;1.40;;;0.80;75.20;;;;;;10409647;28;22777;-67
2021/01/16 13:51:40;;;;;;;2.40;1.02;;;1.00;75.40;;;;;;10395004;28;20380;-65
2021/01/16 13:56:49;;;;;;;2.13;0.90;;;0.80;74.60;;;;;;10414923;28;20041;-65
2021/01/16 14:01:52;;;;;;;3.10;1.38;;;0.80;74.50;;;;;;10383985;28;20080;-65
2021/01/16 14:06:55;;;;;;;4.07;1.50;;;1.10;74.50;;;;;;10377317;28;20639;-65
2021/01/16 14:12:02;;;;;;;4.43;1.42;;;0.80;75.80;;;;;;10404064;28;20049;-65
2021/01/16 14:17:23;;;;;;;5.72;2.55;;;0.90;74.60;;;;;;10391064;28;20042;-65
2021/01/16 14:22:40;;;;;;;3.88;1.77;;;1.10;77.60;;;;;;10333445;28;20083;-65
2021/01/16 14:27:48;;;;;;;3.78;2.22;;;1.20;77.20;;;;;;10397104;28;20091;-65
2021/01/16 14:32:56;;;;;;;;;;;1.40;76.60;;;;;;10421508;28;20103;-64
2021/01/16 14:38:00;;;;;;;4.97;2.58;;;1.50;76.80;;;;;;10415463;28;19924;-66
2021/01/16 14:43:10;;;;;;;6.00;2.30;;;1.40;78.30;;;;;;10418266;28;20048;-65
2021/01/16 14:48:14;;;;;;;4.13;1.90;;;1.40;75.40;;;;;;10411799;28;20442;-65
2021/01/16 14:53:30;;;;;;;4.78;2.47;;;1.10;77.50;;;;;;10395670;28;20403;-65
2021/01/16 14:58:33;;;;;;;5.85;2.03;;;1.00;77.40;;;;;;10400821;28;20037;-65
2021/01/16 15:03:37;;;;;;;8.02;2.95;;;1.10;77.50;;;;;;10410740;28;20107;-66
2021/01/16 15:08:49;;;;;;;6.35;3.33;;;1.00;77.80;;;;;;10428975;28;20068;-66
2021/01/16 15:13:51;;;;;;;9.95;3.40;;;1.00;78.80;;;;;;10428479;28;20130;-65
2021/01/16 15:18:53;;;;;;;7.72;4.13;;;0.80;80.60;;;;;;10430323;28;20045;-65
2021/01/16 15:23:54;;;;;;;10.30;4.45;;;0.60;81.80;;;;;;10417920;28;20041;-65
2021/01/16 15:28:55;;;;;;;12.10;5.85;;;0.60;83.10;;;;;;10387694;28;20523;-65
2021/01/16 15:33:56;;;;;;;9.43;3.60;;;0.40;83.10;;;;;;10416893;28;20049;-65
2021/01/16 15:39:00;;;;;;;9.95;4.25;;;0.50;84.70;;;;;;10424628;28;20472;-65
2021/01/16 15:44:03;;;;;;;7.10;3.28;;;0.40;83.80;;;;;;10415605;28;20053;-65
2021/01/16 15:49:06;;;;;;;7.22;3.92;;;0.40;83.80;;;;;;10422555;28;20045;-65
2021/01/16 15:54:14;;;;;;;8.15;3.78;;;0.40;84.20;;;;;;10419153;28;20057;-65
2021/01/16 15:59:16;;;;;;;10.32;4.03;;;0.40;84.80;;;;;;10428806;28;20060;-65
2021/01/16 16:04:17;;;;;;;8.50;3.78;;;0.40;84.40;;;;;;10415706;28;20083;-65
2021/01/16 16:09:19;;;;;;;6.07;3.10;;;0.40;84.70;;;;;;10425376;28;20053;-65
2021/01/16 16:14:20;;;;;;;7.40;3.95;;;0.30;84.70;;;;;;10408139;28;20084;-65
2021/01/16 16:19:22;;;;;;;8.52;3.58;;;0.30;85.80;;;;;;10420382;28;20107;-66
2021/01/16 16:24:23;;;;;;;7.85;3.65;;;0.30;86.10;;;;;;10419072;28;20053;-66
2021/01/16 16:29:24;;;;;;;9.73;4.05;;;0.30;84.60;;;;;;10409988;28;20033;-66
2021/01/16 16:34:26;;;;;;;6.03;2.88;;;0.30;84.50;;;;;;10423885;28;20115;-65
2021/01/16 16:39:28;;;;;;;7.10;3.30;;;0.20;85.60;;;;;;10420080;28;20120;-64
2021/01/16 16:44:30;;;;;;;8.68;3.85;;;0.30;86.90;;;;;;10435417;28;20048;-66
2021/01/16 16:49:31;;;;;;;10.60;4.68;;;0.30;85.70;;;;;;10434464;28;20044;-66
2021/01/16 16:54:32;;;;;;;8.68;3.63;;;0.20;85.50;;;;;;10441329;28;20511;-65
2021/01/16 16:59:33;;;;;;;9.30;3.40;;;0.30;87.30;;;;;;10441672;28;20048;-66
2021/01/16 17:04:35;;;;;;;7.30;3.47;;;0.30;87.80;;;;;;10434883;28;20056;-66
2021/01/16 17:09:36;;;;;;;9.60;4.60;;;0.20;87.30;;;;;;10430857;28;20044;-65
2021/01/16 17:14:38;;;;;;;6.40;3.63;;;0.10;86.10;;;;;;10395978;28;20049;-66
2021/01/16 17:19:39;;;;;;;9.07;4.85;;;0.00;87.20;;;;;;10436497;28;20053;-66
2021/01/16 17:24:43;;;;;;;4.22;2.60;;;-0.10;85.60;;;;;;10437281;28;20090;-66
2021/01/16 17:29:45;;;;;;;8.73;3.72;;;-0.20;86.00;;;;;;10440788;28;20044;-66
2021/01/16 17:34:53;;;;;;;7.78;3.67;;;-0.20;86.20;;;;;;10441528;28;20086;-66
2021/01/16 17:39:55;;;;;;;7.47;4.05;;;-0.20;87.40;;;;;;10440435;28;20041;-66
2021/01/16 17:44:56;;;;;;;8.65;3.75;;;-0.20;86.80;;;;;;10439004;28;20057;-65
2021/01/16 17:49:57;;;;;;;7.80;3.75;;;-0.20;87.70;;;;;;10442895;28;20056;-66
2021/01/16 17:54:59;;;;;;;6.90;3.45;;;-0.20;87.50;;;;;;10430157;28;20060;-67
2021/01/16 18:00:01;;;;;;;10.15;4.35;;;-0.20;86.90;;;;;;10406829;28;20056;-65
2021/01/16 18:05:03;;;;;;;8.45;4.22;;;-0.30;86.90;;;;;;10417823;28;20048;-66
2021/01/16 18:10:11;;;;;;;9.07;3.53;;;-0.30;87.30;;;;;;10422556;28;20168;-67
2021/01/16 18:15:12;;;;;;;6.65;3.03;;;-0.20;86.80;;;;;;10437815;28;20102;-67
2021/01/16 18:20:14;;;;;;;9.05;3.58;;;-0.20;86.80;;;;;;10438045;28;20095;-67
2021/01/16 18:25:15;;;;;;;10.30;4.15;;;-0.10;88.00;;;;;;10445896;28;20047;-66
2021/01/16 18:30:17;;;;;;;6.68;3.72;;;0.00;88.50;;;;;;10446871;28;20060;-66
2021/01/16 18:35:19;;;;;;;9.43;4.20;;;0.10;89.80;;;;;;10441117;28;20367;-66
2021/01/16 18:40:21;;;;;;;12.48;5.32;;;0.00;89.00;;;;;;10447466;28;20056;-66
2021/01/16 18:45:26;;;;;;;12.30;5.68;;;0.10;89.40;;;;;;10441964;28;20053;-66
2021/01/16 18:50:29;;;;;;;12.13;5.50;;;0.00;90.00;;;;;;10447680;28;20029;-66
2021/01/16 18:55:30;;;;;;;13.80;5.80;;;0.00;88.50;;;;;;10447517;28;20052;-66
2021/01/16 19:00:31;;;;;;;17.67;6.50;;;0.10;88.40;;;;;;10446932;28;20434;-66
2021/01/16 19:05:32;;;;;;;14.20;6.60;;;0.10;88.90;;;;;;10442012;28;20040;-67
2021/01/16 19:10:34;;;;;;;12.80;6.40;;;0.00;89.40;;;;;;10437547;28;20688;-65
2021/01/16 19:15:35;;;;;;;13.70;6.15;;;-0.10;91.00;;;;;;10421402;28;20106;-66
2021/01/16 19:20:36;;;;;;;15.63;8.00;;;-0.20;91.50;;;;;;10441301;28;20053;-65
2021/01/16 19:25:37;;;;;;;20.95;8.65;;;-0.20;92.30;;;;;;10440322;28;20040;-65
2021/01/16 19:30:39;;;;;;;19.48;8.77;;;-0.30;92.90;;;;;;10427361;28;20048;-64
2021/01/16 19:35:40;;;;;;;19.05;8.93;;;-0.30;93.60;;;;;;10429630;28;20037;-65
2021/01/16 19:40:41;;;;;;;22.77;9.63;;;-0.40;93.80;;;;;;10424386;28;20041;-64
2021/01/16 19:45:43;;;;;;;22.63;9.45;;;-0.50;94.70;;;;;;10418233;28;20044;-64
2021/01/16 19:50:44;;;;;;;25.13;9.45;;;-0.60;95.70;;;;;;10436165;28;20073;-64
2021/01/16 19:55:45;;;;;;;25.35;11.07;;;-0.60;96.30;;;;;;10421994;28;20049;-63
2021/01/16 20:00:46;;;;;;;25.08;10.77;;;-0.60;97.20;;;;;;10415091;28;20124;-64
2021/01/16 20:05:48;;;;;;;23.58;10.55;;;-0.60;97.60;;;;;;10404325;28;20492;-64
2021/01/16 20:10:50;;;;;;;24.90;10.88;;;-0.60;98.20;;;;;;10412877;28;20048;-64
2021/01/16 20:15:51;;;;;;;27.23;11.77;;;-0.60;98.90;;;;;;10441969;28;20053;-64
2021/01/16 20:20:53;;;;;;;27.63;12.45;;;-0.60;99.40;;;;;;10442754;28;20044;-64
2021/01/16 20:25:54;;;;;;;28.13;12.93;;;-0.60;99.90;;;;;;10439413;28;20530;-64
2021/01/16 20:30:56;;;;;;;33.13;15.10;;;-0.60;99.90;;;;;;10415873;28;20053;-64
2021/01/16 20:35:57;;;;;;;29.90;13.02;;;-0.60;99.90;;;;;;10418165;28;20043;-64
2021/01/16 20:40:58;;;;;;;32.00;14.15;;;-0.60;99.90;;;;;;10410097;28;20048;-64
2021/01/16 20:46:00;;;;;;;27.48;13.05;;;-0.70;99.90;;;;;;10392110;28;20099;-63
2021/01/16 20:51:01;;;;;;;28.30;13.10;;;-0.70;99.90;;;;;;10394406;28;20040;-64
2021/01/16 20:56:02;;;;;;;32.17;13.90;;;-0.70;99.90;;;;;;10410156;28;20352;-64
2021/01/16 21:01:08;;;;;;;34.60;13.93;;;-0.70;99.90;;;;;;10397904;28;20045;-64
2021/01/16 21:06:09;;;;;;;33.42;13.88;;;-0.60;99.90;;;;;;10407020;28;20088;-63
2021/01/16 21:11:10;;;;;;;32.63;13.95;;;-0.70;99.90;;;;;;10413864;28;20052;-64
2021/01/16 21:16:12;;;;;;;29.67;13.82;;;-0.80;99.90;;;;;;10408854;28;20049;-65
2021/01/16 21:21:13;;;;;;;31.90;13.70;;;-0.80;99.90;;;;;;10398061;28;20044;-65
2021/01/16 21:26:15;;;;;;;30.33;13.95;;;-0.80;99.90;;;;;;10407332;28;20052;-65
2021/01/16 21:31:17;;;;;;;39.40;16.83;;;-0.90;99.90;;;;;;10421438;28;20052;-65
2021/01/16 21:36:18;;;;;;;31.20;14.00;;;-0.90;99.90;;;;;;10408471;28;20048;-66
2021/01/16 21:41:19;;;;;;;35.55;16.50;;;-1.10;99.90;;;;;;10409859;28;20124;-65
2021/01/16 21:46:20;;;;;;;36.15;15.35;;;-1.10;99.90;;;;;;10396460;28;20049;-66
2021/01/16 21:51:22;;;;;;;41.75;16.58;;;-1.20;99.90;;;;;;10405178;28;20065;-65
2021/01/16 21:56:29;;;;;;;41.05;17.98;;;-1.20;99.90;;;;;;10432986;28;20068;-66
2021/01/16 22:01:38;;;;;;;41.53;18.60;;;-1.20;99.90;;;;;;10439532;28;20048;-66
2021/01/16 22:06:45;;;;;;;41.97;17.58;;;-1.10;99.90;;;;;;10396983;28;20183;-65
2021/01/16 22:11:48;;;;;;;43.65;17.02;;;-1.20;99.90;;;;;;10394031;28;20049;-65
2021/01/16 22:16:51;;;;;;;37.70;17.20;;;-1.20;99.90;;;;;;10393187;28;20060;-65
2021/01/16 22:21:53;;;;;;;41.75;17.75;;;-1.30;99.90;;;;;;10413600;28;20047;-65
2021/01/16 22:26:55;;;;;;;34.38;15.30;;;-1.20;99.90;;;;;;10382575;28;20059;-65
2021/01/16 22:31:56;;;;;;;36.50;15.45;;;-1.30;99.90;;;;;;10411327;28;20063;-65
2021/01/16 22:36:57;;;;;;;39.92;14.82;;;-1.20;99.90;;;;;;10438542;28;20136;-65
2021/01/16 22:42:05;;;;;;;37.53;16.25;;;-1.30;99.90;;;;;;10412542;28;20102;-64
2021/01/16 22:47:06;;;;;;;30.98;13.75;;;-1.20;99.90;;;;;;10441129;28;20060;-65
2021/01/16 22:52:08;;;;;;;37.17;14.82;;;-1.10;99.90;;;;;;10439057;28;20115;-65
2021/01/16 22:57:09;;;;;;;34.85;14.48;;;-1.10;99.90;;;;;;10446261;28;20036;-65
2021/01/16 23:02:10;;;;;;;34.90;15.63;;;-1.10;99.90;;;;;;10448471;28;20056;-65
2021/01/16 23:07:12;;;;;;;38.67;15.75;;;-1.00;99.90;;;;;;10445629;28;20048;-65
2021/01/16 23:12:13;;;;;;;37.22;16.05;;;-0.90;99.90;;;;;;10435411;28;20044;-66
2021/01/16 23:17:14;;;;;;;33.10;13.25;;;-1.20;99.90;;;;;;10440214;28;20059;-63
2021/01/16 23:22:15;;;;;;;43.90;16.75;;;-1.20;99.90;;;;;;10442098;28;20077;-63
2021/01/16 23:27:17;;;;;;;43.25;17.30;;;-1.20;99.90;;;;;;10442116;28;20364;-64
2021/01/16 23:32:18;;;;;;;45.22;16.60;;;-1.20;99.90;;;;;;10416870;28;20088;-64
2021/01/16 23:37:19;;;;;;;43.95;18.73;;;-1.20;99.90;;;;;;10430014;28;20041;-63
2021/01/16 23:42:21;;;;;;;45.50;16.75;;;-1.20;99.90;;;;;;10431706;28;20045;-64
2021/01/16 23:47:22;;;;;;;40.78;17.83;;;-1.20;99.90;;;;;;10416054;28;20043;-63
2021/01/16 23:52:23;;;;;;;38.95;16.13;;;-1.20;99.90;;;;;;10439155;28;20043;-63
2021/01/16 23:57:24;;;;;;;38.50;15.88;;;-1.10;99.90;;;;;;10453993;28;20053;-63
